sensor_id;sensor_type;location;lat;lon;timestamp;temperature;humidity
17968;DHT22;9109;48.050;11.696;2023-03-01T04:48:53;0.30;99.90
17968;DHT22;9109;48.050;11.696;2023-03-01T04:51:55;0.20;99.90
17968;DHT22;9109;48.050;11.696;2023-03-01T04:55:00;0.30;99.90
17968;DHT22;9109;48.050;11.696;2023-03-01T04:58:02;0.40;99.90
17968;DHT22;9109;48.050;11.696;2023-03-01T05:01:08;0.40;99.90
17968;DHT22;9109;48.050;11.696;2023-03-01T05:04:17;0.40;99.90
17968;DHT22;9109;48.050;11.696;2023-03-01T05:07:18;0.40;99.90
17968;DHT22;9109;48.050;11.696;2023-03-01T05:10:21;0.30;99.90
17968;DHT22;9109;48.050;11.696;2023-03-01T05:13:23;0.30;99.90
17968;DHT22;9109;48.050;11.696;2023-03-01T05:16:25;0.30;99.90
17968;DHT22;9109;48.050;11.696;2023-03-01T05:19:28;0.30;99.90
17968;DHT22;9109;48.050;11.696;2023-03-01T05:22:31;0.30;99.90
17968;DHT22;9109;48.050;11.696;2023-03-01T05:25:34;0.20;99.90
17968;DHT22;9109;48.050;11.696;2023-03-01T05:28:40;0.20;99.90
17968;DHT22;9109;48.050;11.696;2023-03-01T05:31:42;0.20;99.90
17968;DHT22;9109;48.050;11.696;2023-03-01T05:34:45;0.10;99.90
17968;DHT22;9109;48.050;11.696;2023-03-01T05:37:48;0.00;99.90
17968;DHT22;9109;48.050;11.696;2023-03-01T05:40:50;-0.10;99.90
17968;DHT22;9109;48.050;11.696;2023-03-01T05:43:52;-0.10;99.90
17968;DHT22;9109;48.050;11.696;2023-03-01T05:46:54;0.00;99.90
17968;DHT22;9109;48.050;11.696;2023-03-01T05:49:58;0.10;99.90
17968;DHT22;9109;48.050;11.696;2023-03-01T05:53:01;0.10;99.90
17968;DHT22;9109;48.050;11.696;2023-03-01T05:56:05;0.10;99.90
17968;DHT22;9109;48.050;11.696;2023-03-01T05:59:07;0.10;99.90
17968;DHT22;9109;48.050;11.696;2023-03-01T06:02:09;0.10;99.90
17968;DHT22;9109;48.050;11.696;2023-03-01T06:05:15;-0.10;99.90
17968;DHT22;9109;48.050;11.696;2023-03-01T06:08:17;-0.10;99.90
17968;DHT22;9109;48.050;11.696;2023-03-01T06:11:21;0.00;99.90
17968;DHT22;9109;48.050;11.696;2023-03-01T06:14:23;-0.10;99.90
17968;DHT22;9109;48.050;11.696;2023-03-01T06:17:39;0.00;99.90
17968;DHT22;9109;48.050;11.696;2023-03-01T06:20:43;0.00;99.90
17968;DHT22;9109;48.050;11.696;2023-03-01T06:23:45;0.00;99.90
17968;DHT22;9109;48.050;11.696;2023-03-01T06:26:47;-0.10;99.90
17968;DHT22;9109;48.050;11.696;2023-03-01T06:29:49;-0.10;99.90
17968;DHT22;9109;48.050;11.696;2023-03-01T06:32:52;-0.10;99.90
17968;DHT22;9109;48.050;11.696;2023-03-01T06:36:03;-0.10;99.90
17968;DHT22;9109;48.050;11.696;2023-03-01T06:39:05;0.00;99.90
17968;DHT22;9109;48.050;11.696;2023-03-01T06:42:07;-0.10;99.90
17968;DHT22;9109;48.050;11.696;2023-03-01T06:45:11;-0.10;99.90
17968;DHT22;9109;48.050;11.696;2023-03-01T06:48:13;-0.30;99.90
17968;DHT22;9109;48.050;11.696;2023-03-01T06:51:16;-0.30;99.90
17968;DHT22;9109;48.050;11.696;2023-03-01T06:54:18;-0.20;99.90
17968;DHT22;9109;48.050;11.696;2023-03-01T06:57:22;-0.10;99.90
17968;DHT22;9109;48.050;11.696;2023-03-01T07:00:24;-0.10;99.90
17968;DHT22;9109;48.050;11.696;2023-03-01T07:03:26;0.00;99.90
17968;DHT22;9109;48.050;11.696;2023-03-01T07:06:30;0.00;99.90
17968;DHT22;9109;48.050;11.696;2023-03-01T07:09:32;-0.10;99.90
17968;DHT22;9109;48.050;11.696;2023-03-01T07:12:33;0.00;99.90
17968;DHT22;9109;48.050;11.696;2023-03-01T07:15:35;0.00;99.90
17968;DHT22;9109;48.050;11.696;2023-03-01T07:18:37;0.10;99.90
17968;DHT22;9109;48.050;11.696;2023-03-01T07:21:40;0.10;99.90
17968;DHT22;9109;48.050;11.696;2023-03-01T07:24:43;0.10;99.90
17968;DHT22;9109;48.050;11.696;2023-03-01T07:27:49;0.00;99.90
17968;DHT22;9109;48.050;11.696;2023-03-01T07:30:51;-0.10;99.90
17968;DHT22;9109;48.050;11.696;2023-03-01T07:33:52;0.00;99.90
17968;DHT22;9109;48.050;11.696;2023-03-01T07:36:56;0.20;99.90
17968;DHT22;9109;48.050;11.696;2023-03-01T07:39:57;0.30;99.90
17968;DHT22;9109;48.050;11.696;2023-03-01T07:42:59;0.30;99.90
17968;DHT22;9109;48.050;11.696;2023-03-01T07:46:02;0.10;99.90
17968;DHT22;9109;48.050;11.696;2023-03-01T07:49:04;0.10;99.90
17968;DHT22;9109;48.050;11.696;2023-03-01T07:52:09;0.00;99.90
17968;DHT22;9109;48.050;11.696;2023-03-01T07:55:12;0.10;99.90
17968;DHT22;9109;48.050;11.696;2023-03-01T07:58:13;0.00;99.90
17968;DHT22;9109;48.050;11.696;2023-03-01T08:01:17;0.00;99.90
17968;DHT22;9109;48.050;11.696;2023-03-01T08:04:19;0.00;99.90
17968;DHT22;9109;48.050;11.696;2023-03-01T08:07:22;0.10;99.90
17968;DHT22;9109;48.050;11.696;2023-03-01T08:10:24;0.20;99.90
17968;DHT22;9109;48.050;11.696;2023-03-01T08:13:26;0.20;99.90
17968;DHT22;9109;48.050;11.696;2023-03-01T08:16:28;0.20;99.90
17968;DHT22;9109;48.050;11.696;2023-03-01T08:19:30;0.30;99.90
17968;DHT22;9109;48.050;11.696;2023-03-01T08:22:35;0.20;99.90
17968;DHT22;9109;48.050;11.696;2023-03-01T08:25:36;0.20;99.90
17968;DHT22;9109;48.050;11.696;2023-03-01T08:28:39;0.30;99.90
17968;DHT22;9109;48.050;11.696;2023-03-01T08:31:41;0.40;99.90
17968;DHT22;9109;48.050;11.696;2023-03-01T08:34:46;0.60;99.90
17968;DHT22;9109;48.050;11.696;2023-03-01T08:37:49;0.80;99.90
17968;DHT22;9109;48.050;11.696;2023-03-01T08:40:51;0.70;99.90
17968;DHT22;9109;48.050;11.696;2023-03-01T08:43:53;0.60;99.90
17968;DHT22;9109;48.050;11.696;2023-03-01T08:46:58;0.70;99.90
17968;DHT22;9109;48.050;11.696;2023-03-01T08:50:00;0.80;99.90
17968;DHT22;9109;48.050;11.696;2023-03-01T08:53:04;0.70;99.90
17968;DHT22;9109;48.050;11.696;2023-03-01T08:56:06;0.70;99.90
17968;DHT22;9109;48.050;11.696;2023-03-01T08:59:09;0.60;99.90
17968;DHT22;9109;48.050;11.696;2023-03-01T09:02:13;0.70;99.90
17968;DHT22;9109;48.050;11.696;2023-03-01T09:05:15;0.80;99.90
17968;DHT22;9109;48.050;11.696;2023-03-01T09:08:19;0.80;99.90
17968;DHT22;9109;48.050;11.696;2023-03-01T09:11:21;0.80;99.90
17968;DHT22;9109;48.050;11.696;2023-03-01T09:14:23;0.80;99.90
17968;DHT22;9109;48.050;11.696;2023-03-01T09:17:25;0.90;99.90
17968;DHT22;9109;48.050;11.696;2023-03-01T09:20:27;1.00;99.90
17968;DHT22;9109;48.050;11.696;2023-03-01T09:23:30;1.10;99.90
17968;DHT22;9109;48.050;11.696;2023-03-01T09:26:32;1.10;99.90
17968;DHT22;9109;48.050;11.696;2023-03-01T09:29:35;1.10;99.90
17968;DHT22;9109;48.050;11.696;2023-03-01T09:32:37;1.20;99.90
17968;DHT22;9109;48.050;11.696;2023-03-01T09:35:43;1.20;99.90
17968;DHT22;9109;48.050;11.696;2023-03-01T09:38:48;1.40;99.90
17968;DHT22;9109;48.050;11.696;2023-03-01T09:41:57;1.30;99.90
17968;DHT22;9109;48.050;11.696;2023-03-01T09:45:04;1.10;99.90
17968;DHT22;9109;48.050;11.696;2023-03-01T09:48:14;1.10;99.90
17968;DHT22;9109;48.050;11.696;2023-03-01T09:51:19;1.10;99.90
17968;DHT22;9109;48.050;11.696;2023-03-01T09:54:24;1.20;99.90
17968;DHT22;9109;48.050;11.696;2023-03-01T09:57:30;1.10;99.90
17968;DHT22;9109;48.050;11.696;2023-03-01T10:00:39;1.20;99.90
17968;DHT22;9109;48.050;11.696;2023-03-01T10:03:47;1.10;99.90
17968;DHT22;9109;48.050;11.696;2023-03-01T10:06:58;1.20;99.90
17968;DHT22;9109;48.050;11.696;2023-03-01T10:10:07;1.20;99.90
17968;DHT22;9109;48.050;11.696;2023-03-01T10:13:14;1.40;99.90
17968;DHT22;9109;48.050;11.696;2023-03-01T10:16:22;1.50;99.90
17968;DHT22;9109;48.050;11.696;2023-03-01T10:19:31;1.20;99.90
17968;DHT22;9109;48.050;11.696;2023-03-01T10:22:33;1.20;99.90
17968;DHT22;9109;48.050;11.696;2023-03-01T10:25:46;1.30;99.90
17968;DHT22;9109;48.050;11.696;2023-03-01T10:28:58;1.40;99.90
17968;DHT22;9109;48.050;11.696;2023-03-01T10:32:03;1.60;99.90
17968;DHT22;9109;48.050;11.696;2023-03-01T10:35:16;1.70;99.90
17968;DHT22;9109;48.050;11.696;2023-03-01T10:38:19;1.40;99.90
17968;DHT22;9109;48.050;11.696;2023-03-01T10:41:24;1.60;99.90
17968;DHT22;9109;48.050;11.696;2023-03-01T10:44:36;1.60;99.90
17968;DHT22;9109;48.050;11.696;2023-03-01T10:47:39;1.70;99.90
17968;DHT22;9109;48.050;11.696;2023-03-01T10:50:42;1.60;99.90
17968;DHT22;9109;48.050;11.696;2023-03-01T10:53:49;1.70;99.90
17968;DHT22;9109;48.050;11.696;2023-03-01T10:56:55;1.70;99.90
17968;DHT22;9109;48.050;11.696;2023-03-01T11:00:13;1.70;99.90
17968;DHT22;9109;48.050;11.696;2023-03-01T11:03:19;1.70;99.90
17968;DHT22;9109;48.050;11.696;2023-03-01T11:06:23;1.90;99.90
17968;DHT22;9109;48.050;11.696;2023-03-01T11:09:31;1.90;99.90
17968;DHT22;9109;48.050;11.696;2023-03-01T11:12:39;1.90;99.90
17968;DHT22;9109;48.050;11.696;2023-03-01T11:15:41;1.50;99.90
17968;DHT22;9109;48.050;11.696;2023-03-01T11:18:47;1.60;99.90
17968;DHT22;9109;48.050;11.696;2023-03-01T11:22:02;1.80;99.90
17968;DHT22;9109;48.050;11.696;2023-03-01T11:25:05;1.90;99.90
17968;DHT22;9109;48.050;11.696;2023-03-01T11:28:16;2.10;99.90
17968;DHT22;9109;48.050;11.696;2023-03-01T11:31:19;2.10;99.90
17968;DHT22;9109;48.050;11.696;2023-03-01T11:34:26;2.00;99.90
17968;DHT22;9109;48.050;11.696;2023-03-01T11:37:36;1.90;99.90
17968;DHT22;9109;48.050;11.696;2023-03-01T11:40:43;2.00;99.90
17968;DHT22;9109;48.050;11.696;2023-03-01T11:43:51;2.20;99.90
17968;DHT22;9109;48.050;11.696;2023-03-01T11:47:17;2.30;99.90
17968;DHT22;9109;48.050;11.696;2023-03-01T11:50:30;2.30;99.90
17968;DHT22;9109;48.050;11.696;2023-03-01T11:53:56;2.20;99.90
17968;DHT22;9109;48.050;11.696;2023-03-01T11:57:02;2.00;99.90
17968;DHT22;9109;48.050;11.696;2023-03-01T12:00:29;2.00;99.90
17968;DHT22;9109;48.050;11.696;2023-03-01T12:04:02;2.20;99.90
17968;DHT22;9109;48.050;11.696;2023-03-01T12:07:12;2.10;99.90
17968;DHT22;9109;48.050;11.696;2023-03-01T12:10:20;2.30;99.90
17968;DHT22;9109;48.050;11.696;2023-03-01T12:13:37;2.40;99.90
17968;DHT22;9109;48.050;11.696;2023-03-01T12:16:58;2.70;99.90
17968;DHT22;9109;48.050;11.696;2023-03-01T12:20:18;2.90;99.90
17968;DHT22;9109;48.050;11.696;2023-03-01T12:23:38;3.20;99.90
17968;DHT22;9109;48.050;11.696;2023-03-01T12:26:48;3.10;99.90
17968;DHT22;9109;48.050;11.696;2023-03-01T12:30:01;3.00;99.90
17968;DHT22;9109;48.050;11.696;2023-03-01T12:33:15;3.30;99.90
17968;DHT22;9109;48.050;11.696;2023-03-01T12:36:36;3.50;99.90
17968;DHT22;9109;48.050;11.696;2023-03-01T12:39:49;3.50;99.90
17968;DHT22;9109;48.050;11.696;2023-03-01T12:42:59;3.60;99.90
17968;DHT22;9109;48.050;11.696;2023-03-01T12:46:14;3.70;99.90
17968;DHT22;9109;48.050;11.696;2023-03-01T12:49:23;3.90;99.90
17968;DHT22;9109;48.050;11.696;2023-03-01T12:52:35;3.90;99.90
17968;DHT22;9109;48.050;11.696;2023-03-01T12:55:41;3.90;99.90
17968;DHT22;9109;48.050;11.696;2023-03-01T12:58:51;3.90;99.90
17968;DHT22;9109;48.050;11.696;2023-03-01T13:02:02;3.90;99.90
17968;DHT22;9109;48.050;11.696;2023-03-01T13:05:19;4.00;99.90
17968;DHT22;9109;48.050;11.696;2023-03-01T13:08:29;4.00;99.90
17968;DHT22;9109;48.050;11.696;2023-03-01T13:11:33;4.10;99.90
17968;DHT22;9109;48.050;11.696;2023-03-01T13:14:44;4.10;99.90
17968;DHT22;9109;48.050;11.696;2023-03-01T13:17:46;4.10;99.90
17968;DHT22;9109;48.050;11.696;2023-03-01T13:20:54;4.20;99.90
17968;DHT22;9109;48.050;11.696;2023-03-01T13:23:57;4.20;99.90
17968;DHT22;9109;48.050;11.696;2023-03-01T13:27:21;4.20;99.90
17968;DHT22;9109;48.050;11.696;2023-03-01T13:30:42;4.20;99.90
17968;DHT22;9109;48.050;11.696;2023-03-01T13:33:45;4.30;99.90
17968;DHT22;9109;48.050;11.696;2023-03-01T13:36:49;4.30;99.90
17968;DHT22;9109;48.050;11.696;2023-03-01T13:39:51;4.40;99.90
17968;DHT22;9109;48.050;11.696;2023-03-01T13:42:54;4.50;99.90
17968;DHT22;9109;48.050;11.696;2023-03-01T13:45:57;4.40;99.60
17968;DHT22;9109;48.050;11.696;2023-03-01T13:49:00;4.40;99.20
17968;DHT22;9109;48.050;11.696;2023-03-01T13:52:05;4.40;99.30
17968;DHT22;9109;48.050;11.696;2023-03-01T13:55:17;4.40;99.20
17968;DHT22;9109;48.050;11.696;2023-03-01T13:58:22;4.50;99.90
17968;DHT22;9109;48.050;11.696;2023-03-01T14:01:28;4.40;99.00
17968;DHT22;9109;48.050;11.696;2023-03-01T14:04:32;4.30;99.10
17968;DHT22;9109;48.050;11.696;2023-03-01T14:07:37;4.50;99.70
17968;DHT22;9109;48.050;11.696;2023-03-01T14:10:48;4.50;99.20
17968;DHT22;9109;48.050;11.696;2023-03-01T14:14:03;4.50;99.70
17968;DHT22;9109;48.050;11.696;2023-03-01T14:20:43;4.50;99.90
17968;DHT22;9109;48.050;11.696;2023-03-01T14:23:47;4.50;99.90
17968;DHT22;9109;48.050;11.696;2023-03-01T14:26:50;4.60;99.90
17968;DHT22;9109;48.050;11.696;2023-03-01T14:29:56;4.70;99.90
17968;DHT22;9109;48.050;11.696;2023-03-01T14:33:00;4.70;99.90
17968;DHT22;9109;48.050;11.696;2023-03-01T14:36:05;4.80;99.90
17968;DHT22;9109;48.050;11.696;2023-03-01T14:39:18;4.70;99.50
17968;DHT22;9109;48.050;11.696;2023-03-01T14:42:24;4.70;99.70
17968;DHT22;9109;48.050;11.696;2023-03-01T14:45:29;4.80;99.90
17968;DHT22;9109;48.050;11.696;2023-03-01T14:48:32;4.90;99.90
17968;DHT22;9109;48.050;11.696;2023-03-01T14:51:38;4.90;99.60
17968;DHT22;9109;48.050;11.696;2023-03-01T14:54:44;4.90;99.80
17968;DHT22;9109;48.050;11.696;2023-03-01T14:57:49;4.90;99.40
17968;DHT22;9109;48.050;11.696;2023-03-01T15:00:53;4.90;99.70
17968;DHT22;9109;48.050;11.696;2023-03-01T15:03:55;5.00;99.80
17968;DHT22;9109;48.050;11.696;2023-03-01T15:06:57;5.10;99.20
17968;DHT22;9109;48.050;11.696;2023-03-01T15:10:14;5.10;99.30
17968;DHT22;9109;48.050;11.696;2023-03-01T15:13:22;5.10;99.90
17968;DHT22;9109;48.050;11.696;2023-03-01T15:16:26;5.10;99.90
17968;DHT22;9109;48.050;11.696;2023-03-01T15:19:29;5.00;99.60
17968;DHT22;9109;48.050;11.696;2023-03-01T15:22:31;4.90;99.90
17968;DHT22;9109;48.050;11.696;2023-03-01T15:25:35;5.00;99.90
17968;DHT22;9109;48.050;11.696;2023-03-01T15:28:48;5.00;99.50
17968;DHT22;9109;48.050;11.696;2023-03-01T15:31:55;5.00;99.70
17968;DHT22;9109;48.050;11.696;2023-03-01T15:34:58;5.10;99.90
17968;DHT22;9109;48.050;11.696;2023-03-01T15:38:00;5.10;99.90
17968;DHT22;9109;48.050;11.696;2023-03-01T15:41:04;5.20;99.90
17968;DHT22;9109;48.050;11.696;2023-03-01T15:44:15;5.20;99.90
17968;DHT22;9109;48.050;11.696;2023-03-01T15:47:26;5.20;99.90
17968;DHT22;9109;48.050;11.696;2023-03-01T15:50:31;5.10;99.90
17968;DHT22;9109;48.050;11.696;2023-03-01T15:53:34;4.90;99.90
17968;DHT22;9109;48.050;11.696;2023-03-01T15:56:37;4.90;99.90
17968;DHT22;9109;48.050;11.696;2023-03-01T15:59:39;4.90;99.90
17968;DHT22;9109;48.050;11.696;2023-03-01T16:02:42;4.90;99.90
17968;DHT22;9109;48.050;11.696;2023-03-01T16:05:44;4.80;99.90
17968;DHT22;9109;48.050;11.696;2023-03-01T16:08:46;4.80;99.90
17968;DHT22;9109;48.050;11.696;2023-03-01T16:11:49;4.80;99.90
17968;DHT22;9109;48.050;11.696;2023-03-01T16:14:51;4.80;99.90
17968;DHT22;9109;48.050;11.696;2023-03-01T16:17:54;4.70;99.90
17968;DHT22;9109;48.050;11.696;2023-03-01T16:20:57;4.70;99.90
17968;DHT22;9109;48.050;11.696;2023-03-01T16:24:00;4.70;99.90
17968;DHT22;9109;48.050;11.696;2023-03-01T16:27:03;4.60;99.90
17968;DHT22;9109;48.050;11.696;2023-03-01T16:30:06;4.50;99.90
17968;DHT22;9109;48.050;11.696;2023-03-01T16:33:08;4.50;99.90
17968;DHT22;9109;48.050;11.696;2023-03-01T16:36:11;4.50;99.90
17968;DHT22;9109;48.050;11.696;2023-03-01T16:39:14;4.50;99.90
17968;DHT22;9109;48.050;11.696;2023-03-01T16:42:18;4.40;99.90
17968;DHT22;9109;48.050;11.696;2023-03-01T16:45:20;4.40;99.90
17968;DHT22;9109;48.050;11.696;2023-03-01T16:48:22;4.30;99.90
17968;DHT22;9109;48.050;11.696;2023-03-01T16:51:24;4.30;99.90
17968;DHT22;9109;48.050;11.696;2023-03-01T16:54:26;4.20;99.90
17968;DHT22;9109;48.050;11.696;2023-03-01T16:57:29;4.00;99.90
17968;DHT22;9109;48.050;11.696;2023-03-01T17:00:31;3.90;99.90
17968;DHT22;9109;48.050;11.696;2023-03-01T17:03:34;3.80;99.90
17968;DHT22;9109;48.050;11.696;2023-03-01T17:06:35;3.70;99.90
17968;DHT22;9109;48.050;11.696;2023-03-01T17:09:37;3.70;99.90
17968;DHT22;9109;48.050;11.696;2023-03-01T17:12:41;3.70;99.90
17968;DHT22;9109;48.050;11.696;2023-03-01T17:15:42;3.60;99.90
17968;DHT22;9109;48.050;11.696;2023-03-01T17:18:45;3.50;99.90
17968;DHT22;9109;48.050;11.696;2023-03-01T17:21:47;3.50;99.90
17968;DHT22;9109;48.050;11.696;2023-03-01T17:24:49;3.50;99.90
17968;DHT22;9109;48.050;11.696;2023-03-01T17:27:52;3.40;99.90
17968;DHT22;9109;48.050;11.696;2023-03-01T17:30:54;3.40;99.90
17968;DHT22;9109;48.050;11.696;2023-03-01T17:33:57;3.40;99.90
17968;DHT22;9109;48.050;11.696;2023-03-01T17:36:59;3.50;99.90
17968;DHT22;9109;48.050;11.696;2023-03-01T17:40:01;3.50;99.90
17968;DHT22;9109;48.050;11.696;2023-03-01T17:43:04;3.40;99.90
17968;DHT22;9109;48.050;11.696;2023-03-01T17:46:06;3.20;99.90
17968;DHT22;9109;48.050;11.696;2023-03-01T17:49:08;3.30;99.90
17968;DHT22;9109;48.050;11.696;2023-03-01T17:52:10;3.20;99.90
17968;DHT22;9109;48.050;11.696;2023-03-01T17:55:12;3.30;99.90
17968;DHT22;9109;48.050;11.696;2023-03-01T17:58:17;3.00;99.90
17968;DHT22;9109;48.050;11.696;2023-03-01T18:01:23;2.80;99.90
17968;DHT22;9109;48.050;11.696;2023-03-01T18:04:27;2.80;99.90
17968;DHT22;9109;48.050;11.696;2023-03-01T18:07:30;3.00;99.90
17968;DHT22;9109;48.050;11.696;2023-03-01T18:10:33;3.20;99.90
17968;DHT22;9109;48.050;11.696;2023-03-01T18:13:38;3.20;99.90
17968;DHT22;9109;48.050;11.696;2023-03-01T18:16:40;3.20;99.90
17968;DHT22;9109;48.050;11.696;2023-03-01T18:19:42;2.80;99.90
17968;DHT22;9109;48.050;11.696;2023-03-01T18:22:44;2.70;99.90
17968;DHT22;9109;48.050;11.696;2023-03-01T18:25:46;2.70;99.90
17968;DHT22;9109;48.050;11.696;2023-03-01T18:28:51;2.50;99.90
17968;DHT22;9109;48.050;11.696;2023-03-01T18:31:53;2.70;99.90
17968;DHT22;9109;48.050;11.696;2023-03-01T18:34:55;2.60;99.90
17968;DHT22;9109;48.050;11.696;2023-03-01T18:37:56;2.70;99.90
17968;DHT22;9109;48.050;11.696;2023-03-01T18:40:58;2.70;99.90
17968;DHT22;9109;48.050;11.696;2023-03-01T18:44:03;2.80;99.90
17968;DHT22;9109;48.050;11.696;2023-03-01T18:47:06;3.00;99.90
17968;DHT22;9109;48.050;11.696;2023-03-01T18:50:08;3.00;99.90
17968;DHT22;9109;48.050;11.696;2023-03-01T18:53:10;3.10;99.90
17968;DHT22;9109;48.050;11.696;2023-03-01T18:56:12;3.20;99.90
17968;DHT22;9109;48.050;11.696;2023-03-01T18:59:16;3.20;99.90
17968;DHT22;9109;48.050;11.696;2023-03-01T19:02:18;3.30;99.90
17968;DHT22;9109;48.050;11.696;2023-03-01T19:05:19;3.20;99.90
17968;DHT22;9109;48.050;11.696;2023-03-01T19:08:22;3.10;99.90
17968;DHT22;9109;48.050;11.696;2023-03-01T19:11:25;3.20;99.90
17968;DHT22;9109;48.050;11.696;2023-03-01T19:14:31;3.10;99.90
17968;DHT22;9109;48.050;11.696;2023-03-01T19:17:33;3.10;99.90
17968;DHT22;9109;48.050;11.696;2023-03-01T19:20:35;3.10;99.90
17968;DHT22;9109;48.050;11.696;2023-03-01T19:23:37;3.00;99.90
17968;DHT22;9109;48.050;11.696;2023-03-01T19:26:39;3.10;99.90
17968;DHT22;9109;48.050;11.696;2023-03-01T19:29:43;3.20;99.90
17968;DHT22;9109;48.050;11.696;2023-03-01T19:32:45;3.00;99.90
17968;DHT22;9109;48.050;11.696;2023-03-01T19:35:47;2.90;99.90
17968;DHT22;9109;48.050;11.696;2023-03-01T19:38:50;3.00;99.90
17968;DHT22;9109;48.050;11.696;2023-03-01T19:41:52;3.00;99.90
17968;DHT22;9109;48.050;11.696;2023-03-01T19:44:56;2.90;99.90
17968;DHT22;9109;48.050;11.696;2023-03-01T19:48:00;2.90;99.90
17968;DHT22;9109;48.050;11.696;2023-03-01T19:51:02;2.90;99.90
17968;DHT22;9109;48.050;11.696;2023-03-01T19:54:04;2.70;99.90
17968;DHT22;9109;48.050;11.696;2023-03-01T19:57:07;2.60;99.90
17968;DHT22;9109;48.050;11.696;2023-03-01T20:00:11;2.40;99.90
17968;DHT22;9109;48.050;11.696;2023-03-01T20:03:13;2.40;99.90
17968;DHT22;9109;48.050;11.696;2023-03-01T20:06:17;2.30;99.90
17968;DHT22;9109;48.050;11.696;2023-03-01T20:09:21;2.20;99.90
17968;DHT22;9109;48.050;11.696;2023-03-01T20:12:23;2.20;99.90
17968;DHT22;9109;48.050;11.696;2023-03-01T20:15:26;2.30;99.90
17968;DHT22;9109;48.050;11.696;2023-03-01T20:18:28;2.40;99.90
17968;DHT22;9109;48.050;11.696;2023-03-01T20:21:30;2.60;99.90
17968;DHT22;9109;48.050;11.696;2023-03-01T20:24:32;2.60;99.90
17968;DHT22;9109;48.050;11.696;2023-03-01T20:27:34;2.70;99.90
17968;DHT22;9109;48.050;11.696;2023-03-01T20:30:38;2.80;99.90
17968;DHT22;9109;48.050;11.696;2023-03-01T20:33:43;2.70;99.90
17968;DHT22;9109;48.050;11.696;2023-03-01T20:36:45;2.50;99.90
17968;DHT22;9109;48.050;11.696;2023-03-01T20:39:47;2.30;99.90
17968;DHT22;9109;48.050;11.696;2023-03-01T20:42:52;2.20;99.90
17968;DHT22;9109;48.050;11.696;2023-03-01T20:46:02;2.10;99.90
17968;DHT22;9109;48.050;11.696;2023-03-01T20:49:05;2.00;99.90
17968;DHT22;9109;48.050;11.696;2023-03-01T20:52:16;1.90;99.90
17968;DHT22;9109;48.050;11.696;2023-03-01T20:55:19;1.90;99.90
17968;DHT22;9109;48.050;11.696;2023-03-01T20:58:21;1.60;99.90
17968;DHT22;9109;48.050;11.696;2023-03-01T21:01:32;1.50;99.90
17968;DHT22;9109;48.050;11.696;2023-03-01T21:04:35;1.70;99.90
17968;DHT22;9109;48.050;11.696;2023-03-01T21:07:37;1.80;99.90
17968;DHT22;9109;48.050;11.696;2023-03-01T21:10:39;2.00;99.90
17968;DHT22;9109;48.050;11.696;2023-03-01T21:13:41;2.10;99.90
17968;DHT22;9109;48.050;11.696;2023-03-01T21:17:03;2.10;99.90
17968;DHT22;9109;48.050;11.696;2023-03-01T21:20:15;2.10;99.90
17968;DHT22;9109;48.050;11.696;2023-03-01T21:23:16;2.30;99.90
17968;DHT22;9109;48.050;11.696;2023-03-01T21:26:20;2.20;99.90
17968;DHT22;9109;48.050;11.696;2023-03-01T21:29:22;2.30;99.90
17968;DHT22;9109;48.050;11.696;2023-03-01T21:32:26;2.30;99.90
17968;DHT22;9109;48.050;11.696;2023-03-01T21:35:28;2.40;99.90
17968;DHT22;9109;48.050;11.696;2023-03-01T21:38:30;2.20;99.90
17968;DHT22;9109;48.050;11.696;2023-03-01T21:41:36;2.10;99.90
17968;DHT22;9109;48.050;11.696;2023-03-01T21:44:38;2.10;99.90
17968;DHT22;9109;48.050;11.696;2023-03-01T21:47:41;2.20;99.90
17968;DHT22;9109;48.050;11.696;2023-03-01T21:50:43;2.20;99.90
17968;DHT22;9109;48.050;11.696;2023-03-01T21:53:46;2.20;99.90
17968;DHT22;9109;48.050;11.696;2023-03-01T21:56:48;2.30;99.90
17968;DHT22;9109;48.050;11.696;2023-03-01T21:59:53;2.30;99.90
17968;DHT22;9109;48.050;11.696;2023-03-01T22:02:56;2.40;99.90
17968;DHT22;9109;48.050;11.696;2023-03-01T22:06:00;2.20;99.90
17968;DHT22;9109;48.050;11.696;2023-03-01T22:09:05;2.10;99.90
17968;DHT22;9109;48.050;11.696;2023-03-01T22:12:08;1.70;99.90
17968;DHT22;9109;48.050;11.696;2023-03-01T22:15:10;1.70;99.90
17968;DHT22;9109;48.050;11.696;2023-03-01T22:18:13;1.80;99.90
17968;DHT22;9109;48.050;11.696;2023-03-01T22:21:16;2.00;99.90
17968;DHT22;9109;48.050;11.696;2023-03-01T22:24:20;2.10;99.90
17968;DHT22;9109;48.050;11.696;2023-03-01T22:27:22;2.00;99.90
17968;DHT22;9109;48.050;11.696;2023-03-01T22:30:24;1.90;99.90
17968;DHT22;9109;48.050;11.696;2023-03-01T22:33:28;2.00;99.90
17968;DHT22;9109;48.050;11.696;2023-03-01T22:36:30;2.00;99.90
17968;DHT22;9109;48.050;11.696;2023-03-01T22:39:32;1.80;99.90
17968;DHT22;9109;48.050;11.696;2023-03-01T22:42:34;1.70;99.90
17968;DHT22;9109;48.050;11.696;2023-03-01T22:45:37;1.40;99.90
17968;DHT22;9109;48.050;11.696;2023-03-01T22:52:29;1.60;99.90
17968;DHT22;9109;48.050;11.696;2023-03-01T22:55:35;1.80;99.90
17968;DHT22;9109;48.050;11.696;2023-03-01T22:58:43;1.90;99.90
17968;DHT22;9109;48.050;11.696;2023-03-01T23:01:49;1.90;99.90
17968;DHT22;9109;48.050;11.696;2023-03-01T23:04:52;1.90;99.90
17968;DHT22;9109;48.050;11.696;2023-03-01T23:07:56;1.90;99.90
17968;DHT22;9109;48.050;11.696;2023-03-01T23:10:58;1.80;99.90
17968;DHT22;9109;48.050;11.696;2023-03-01T23:14:00;1.90;99.90
17968;DHT22;9109;48.050;11.696;2023-03-01T23:17:02;1.80;99.90
17968;DHT22;9109;48.050;11.696;2023-03-01T23:20:06;1.70;99.90
17968;DHT22;9109;48.050;11.696;2023-03-01T23:23:14;1.70;99.90
17968;DHT22;9109;48.050;11.696;2023-03-01T23:26:17;1.60;99.90
17968;DHT22;9109;48.050;11.696;2023-03-01T23:29:24;1.50;99.90
17968;DHT22;9109;48.050;11.696;2023-03-01T23:32:26;1.30;99.90
17968;DHT22;9109;48.050;11.696;2023-03-01T23:35:28;1.20;99.90
17968;DHT22;9109;48.050;11.696;2023-03-01T23:38:32;0.70;99.90
17968;DHT22;9109;48.050;11.696;2023-03-01T23:41:34;0.50;99.90
17968;DHT22;9109;48.050;11.696;2023-03-01T23:44:36;0.10;99.90
17968;DHT22;9109;48.050;11.696;2023-03-01T23:47:40;0.20;99.90
17968;DHT22;9109;48.050;11.696;2023-03-01T23:50:43;0.10;99.90
17968;DHT22;9109;48.050;11.696;2023-03-01T23:53:48;0.20;99.90
17968;DHT22;9109;48.050;11.696;2023-03-01T23:56:54;0.50;99.90
17968;DHT22;9109;48.050;11.696;2023-03-01T23:59:56;0.70;99.90
